BER49SR EDDS-LIML
Flight info
| Callsign | BER49SR |
|---|---|
| Flight time | 0h 44m |
| Altitude | 22000 |
| Route | ROTWE7H ROTWE Y126 TUBLO N850 NATOR DCT TRA DCT RIPUS DCT GERSA DCT SOSON DCT ODINA |
| Aircraft | A320/M-SDE3FGHIRWY/LB1 |
Departure
| Time | 2026-04-30 19:52 |
|---|---|
| Airport | Stuttgart Airport (EDDS) |
Arrival
| Time | 2026-04-30 20:36 |
|---|---|
| Airport | Milano Linate Airport (LIML) |
| Time | Latitude | Longitude | Altitude | Speed | Heading |
|---|---|---|---|---|---|
| 2026-04-30 19:30 | 48.68788 | 9.19617 | 1291 ft | 0 kts | 164° |
| 2026-04-30 19:48 | 48.68788 | 9.19618 | 1285 ft | 1 kts | 164° |
| 2026-04-30 19:48 | 48.68774 | 9.19623 | 1290 ft | 2 kts | 166° |
| 2026-04-30 19:48 | 48.68741 | 9.19636 | 1287 ft | 9 kts | 166° |
| 2026-04-30 19:49 | 48.68731 | 9.19713 | 1285 ft | 12 kts | 72° |
| 2026-04-30 19:49 | 48.68722 | 9.19970 | 1285 ft | 17 kts | 162° |
| 2026-04-30 19:49 | 48.68632 | 9.20007 | 1290 ft | 15 kts | 165° |
| 2026-04-30 19:50 | 48.68583 | 9.20074 | 1287 ft | 11 kts | 65° |
| 2026-04-30 19:50 | 48.68589 | 9.20098 | 1287 ft | 0 kts | 71° |
| 2026-04-30 19:51 | 48.68603 | 9.20168 | 1287 ft | 26 kts | 74° |
| 2026-04-30 19:51 | 48.68723 | 9.20803 | 1286 ft | 96 kts | 74° |
| 2026-04-30 19:51 | 48.68961 | 9.22056 | 1286 ft | 150 kts | 74° |
| 2026-04-30 19:51 | 48.69279 | 9.23643 | 1789 ft | 157 kts | 72° |
| 2026-04-30 19:52 | 48.69617 | 9.25220 | 2536 ft | 158 kts | 75° |
| 2026-04-30 19:52 | 48.69961 | 9.26900 | 2895 ft | 178 kts | 77° |
| 2026-04-30 19:52 | 48.70306 | 9.28810 | 3190 ft | 198 kts | 78° |
| 2026-04-30 19:52 | 48.70687 | 9.30928 | 3652 ft | 214 kts | 78° |
| 2026-04-30 19:53 | 48.71091 | 9.33109 | 4473 ft | 218 kts | 78° |
| 2026-04-30 19:53 | 48.71181 | 9.35385 | 5197 ft | 222 kts | 106° |
| 2026-04-30 19:53 | 48.70386 | 9.37406 | 5919 ft | 230 kts | 129° |
| 2026-04-30 19:53 | 48.69082 | 9.38966 | 6369 ft | 255 kts | 153° |
| 2026-04-30 19:54 | 48.67280 | 9.39381 | 6921 ft | 275 kts | 186° |
| 2026-04-30 19:54 | 48.65519 | 9.38158 | 7626 ft | 289 kts | 220° |
| 2026-04-30 19:54 | 48.64204 | 9.35826 | 8432 ft | 294 kts | 232° |
| 2026-04-30 19:54 | 48.63040 | 9.33300 | 9236 ft | 298 kts | 235° |
| 2026-04-30 19:55 | 48.61887 | 9.30613 | 10064 ft | 302 kts | 236° |
| 2026-04-30 19:55 | 48.60759 | 9.27950 | 10677 ft | 312 kts | 236° |
| 2026-04-30 19:55 | 48.59536 | 9.25101 | 10903 ft | 335 kts | 235° |
| 2026-04-30 19:55 | 48.58204 | 9.22056 | 11079 ft | 358 kts | 235° |
| 2026-04-30 19:56 | 48.56772 | 9.18836 | 11248 ft | 379 kts | 234° |
| 2026-04-30 19:56 | 48.55271 | 9.15500 | 11736 ft | 388 kts | 234° |
| 2026-04-30 19:56 | 48.53738 | 9.12118 | 12357 ft | 393 kts | 234° |
| 2026-04-30 19:56 | 48.52187 | 9.08705 | 13016 ft | 396 kts | 234° |
| 2026-04-30 19:57 | 48.50620 | 9.05255 | 13659 ft | 400 kts | 234° |
| 2026-04-30 19:57 | 48.49039 | 9.01772 | 14260 ft | 404 kts | 234° |
| 2026-04-30 19:57 | 48.47442 | 8.98257 | 14820 ft | 408 kts | 234° |
| 2026-04-30 19:57 | 48.45828 | 8.94711 | 15379 ft | 412 kts | 234° |
| 2026-04-30 19:58 | 48.44197 | 8.91135 | 15947 ft | 416 kts | 234° |
| 2026-04-30 19:58 | 48.42552 | 8.87531 | 16502 ft | 419 kts | 234° |
| 2026-04-30 19:58 | 48.40891 | 8.83897 | 17062 ft | 423 kts | 235° |
| 2026-04-30 19:58 | 48.39153 | 8.80301 | 17616 ft | 426 kts | 227° |
| 2026-04-30 19:59 | 48.36912 | 8.77389 | 18135 ft | 428 kts | 210° |
| 2026-04-30 19:59 | 48.34215 | 8.75539 | 18662 ft | 427 kts | 193° |
| 2026-04-30 19:59 | 48.28313 | 8.74765 | 19575 ft | 429 kts | 179° |
| 2026-04-30 20:00 | 48.25319 | 8.74641 | 20019 ft | 432 kts | 179° |
| 2026-04-30 20:00 | 48.22307 | 8.74521 | 20457 ft | 435 kts | 179° |
| 2026-04-30 20:00 | 48.19270 | 8.74404 | 20893 ft | 438 kts | 179° |
| 2026-04-30 20:00 | 48.16214 | 8.74286 | 21309 ft | 440 kts | 179° |
| 2026-04-30 20:01 | 48.10050 | 8.74048 | 22035 ft | 445 kts | 179° |
| 2026-04-30 20:01 | 48.06992 | 8.73934 | 22258 ft | 448 kts | 179° |
| 2026-04-30 20:01 | 48.03849 | 8.73816 | 22315 ft | 455 kts | 179° |
| 2026-04-30 20:02 | 47.97379 | 8.73561 | 22314 ft | 474 kts | 179° |
| 2026-04-30 20:02 | 47.94075 | 8.73427 | 22311 ft | 476 kts | 179° |
| 2026-04-30 20:03 | 47.87428 | 8.73158 | 22315 ft | 477 kts | 179° |
| 2026-04-30 20:03 | 47.84109 | 8.73030 | 22307 ft | 477 kts | 179° |
| 2026-04-30 20:03 | 47.80779 | 8.72901 | 22315 ft | 477 kts | 179° |
| 2026-04-30 20:03 | 47.77464 | 8.72770 | 22307 ft | 477 kts | 179° |
| 2026-04-30 20:04 | 47.74141 | 8.72639 | 22286 ft | 477 kts | 179° |
| 2026-04-30 20:04 | 47.70825 | 8.72510 | 22287 ft | 477 kts | 179° |
| 2026-04-30 20:04 | 47.67505 | 8.72385 | 22283 ft | 477 kts | 179° |
| 2026-04-30 20:05 | 47.60865 | 8.72133 | 22271 ft | 477 kts | 179° |
| 2026-04-30 20:05 | 47.57541 | 8.72006 | 22280 ft | 477 kts | 179° |
| 2026-04-30 20:05 | 47.50896 | 8.71748 | 22265 ft | 478 kts | 179° |
| 2026-04-30 20:06 | 47.47575 | 8.71617 | 22263 ft | 477 kts | 179° |
| 2026-04-30 20:06 | 47.44254 | 8.71487 | 22272 ft | 477 kts | 179° |
| 2026-04-30 20:06 | 47.40934 | 8.71359 | 22270 ft | 477 kts | 179° |
| 2026-04-30 20:06 | 47.37618 | 8.71233 | 22269 ft | 477 kts | 179° |
| 2026-04-30 20:07 | 47.34296 | 8.71106 | 22265 ft | 477 kts | 179° |
| 2026-04-30 20:07 | 47.30967 | 8.70978 | 22259 ft | 477 kts | 179° |
| 2026-04-30 20:07 | 47.24369 | 8.70730 | 22265 ft | 477 kts | 179° |
| 2026-04-30 20:08 | 47.21014 | 8.70605 | 22267 ft | 478 kts | 179° |
| 2026-04-30 20:08 | 47.17688 | 8.70477 | 22251 ft | 479 kts | 179° |
| 2026-04-30 20:08 | 47.14399 | 8.70351 | 22238 ft | 479 kts | 179° |
| 2026-04-30 20:08 | 47.11066 | 8.70226 | 22234 ft | 480 kts | 179° |
| 2026-04-30 20:09 | 47.07727 | 8.70101 | 22227 ft | 480 kts | 179° |
| 2026-04-30 20:09 | 47.04386 | 8.69975 | 22235 ft | 480 kts | 179° |
| 2026-04-30 20:09 | 46.97698 | 8.69723 | 22225 ft | 481 kts | 179° |
| 2026-04-30 20:10 | 46.90995 | 8.69475 | 22224 ft | 482 kts | 179° |
| 2026-04-30 20:10 | 46.87640 | 8.69351 | 22227 ft | 482 kts | 179° |
| 2026-04-30 20:10 | 46.84288 | 8.69228 | 22223 ft | 482 kts | 179° |
| 2026-04-30 20:11 | 46.77577 | 8.68970 | 22236 ft | 482 kts | 179° |
| 2026-04-30 20:11 | 46.74228 | 8.68840 | 22242 ft | 482 kts | 179° |
| 2026-04-30 20:11 | 46.70873 | 8.68719 | 22257 ft | 482 kts | 179° |
| 2026-04-30 20:12 | 46.64166 | 8.68479 | 22270 ft | 481 kts | 179° |
| 2026-04-30 20:12 | 46.60818 | 8.68358 | 22267 ft | 482 kts | 179° |
| 2026-04-30 20:12 | 46.57468 | 8.68232 | 22268 ft | 481 kts | 179° |
| 2026-04-30 20:13 | 46.54119 | 8.68103 | 22268 ft | 481 kts | 179° |
| 2026-04-30 20:13 | 46.50815 | 8.67976 | 22271 ft | 481 kts | 179° |
| 2026-04-30 20:13 | 46.47471 | 8.67850 | 22277 ft | 481 kts | 179° |
| 2026-04-30 20:13 | 46.44122 | 8.67727 | 22270 ft | 480 kts | 179° |
| 2026-04-30 20:14 | 46.40777 | 8.67607 | 22274 ft | 481 kts | 179° |
| 2026-04-30 20:14 | 46.37437 | 8.67488 | 22273 ft | 479 kts | 179° |
| 2026-04-30 20:14 | 46.34102 | 8.67368 | 22273 ft | 479 kts | 179° |
| 2026-04-30 20:14 | 46.30763 | 8.67243 | 22281 ft | 481 kts | 179° |
| 2026-04-30 20:15 | 46.27416 | 8.67116 | 22276 ft | 480 kts | 179° |
| 2026-04-30 20:15 | 46.24073 | 8.66993 | 22286 ft | 481 kts | 179° |
| 2026-04-30 20:15 | 46.20725 | 8.66872 | 22290 ft | 481 kts | 179° |
| 2026-04-30 20:15 | 46.17378 | 8.66749 | 22293 ft | 481 kts | 179° |
| 2026-04-30 20:16 | 46.15164 | 8.66721 | 22298 ft | 481 kts | 176° |
| 2026-04-30 20:16 | 46.11850 | 8.67220 | 22298 ft | 478 kts | 167° |
| 2026-04-30 20:16 | 46.08648 | 8.68413 | 22298 ft | 474 kts | 158° |
| 2026-04-30 20:16 | 46.05651 | 8.70217 | 21906 ft | 460 kts | 150° |
| 2026-04-30 20:17 | 46.02819 | 8.72384 | 20697 ft | 464 kts | 148° |
| 2026-04-30 20:17 | 45.99984 | 8.74613 | 19757 ft | 463 kts | 148° |
| 2026-04-30 20:17 | 45.97203 | 8.76813 | 19503 ft | 447 kts | 148° |
| 2026-04-30 20:17 | 45.94533 | 8.78916 | 19385 ft | 429 kts | 148° |
| 2026-04-30 20:18 | 45.91958 | 8.80933 | 19267 ft | 414 kts | 148° |
| 2026-04-30 20:18 | 45.89467 | 8.82877 | 19146 ft | 401 kts | 148° |
| 2026-04-30 20:18 | 45.87057 | 8.84753 | 19026 ft | 387 kts | 148° |
| 2026-04-30 20:18 | 45.84734 | 8.86559 | 18908 ft | 374 kts | 148° |
| 2026-04-30 20:19 | 45.82481 | 8.88306 | 18788 ft | 362 kts | 148° |
| 2026-04-30 20:19 | 45.80298 | 8.89999 | 18669 ft | 351 kts | 148° |
| 2026-04-30 20:19 | 45.78171 | 8.91647 | 18400 ft | 345 kts | 148° |
| 2026-04-30 20:19 | 45.76072 | 8.93273 | 17779 ft | 341 kts | 148° |
| 2026-04-30 20:20 | 45.73998 | 8.94883 | 17122 ft | 338 kts | 148° |
| 2026-04-30 20:20 | 45.71978 | 8.96448 | 16619 ft | 332 kts | 148° |
| 2026-04-30 20:20 | 45.69952 | 8.98011 | 16136 ft | 331 kts | 148° |
| 2026-04-30 20:20 | 45.67918 | 8.99580 | 15724 ft | 331 kts | 149° |
| 2026-04-30 20:21 | 45.65901 | 9.01132 | 15431 ft | 328 kts | 149° |
| 2026-04-30 20:21 | 45.63897 | 9.02678 | 15062 ft | 327 kts | 148° |
| 2026-04-30 20:21 | 45.61898 | 9.04221 | 14631 ft | 324 kts | 148° |
| 2026-04-30 20:21 | 45.59923 | 9.05742 | 14005 ft | 322 kts | 149° |
| 2026-04-30 20:22 | 45.57964 | 9.07248 | 13346 ft | 318 kts | 149° |
| 2026-04-30 20:22 | 45.56028 | 9.08733 | 12744 ft | 313 kts | 149° |
| 2026-04-30 20:22 | 45.54144 | 9.10174 | 12436 ft | 298 kts | 149° |
| 2026-04-30 20:22 | 45.52353 | 9.11540 | 12080 ft | 287 kts | 150° |
| 2026-04-30 20:23 | 45.50513 | 9.12567 | 11798 ft | 283 kts | 165° |
| 2026-04-30 20:23 | 45.48567 | 9.12948 | 11557 ft | 283 kts | 174° |
| 2026-04-30 20:23 | 45.46603 | 9.13165 | 11306 ft | 281 kts | 174° |
| 2026-04-30 20:23 | 45.44650 | 9.13388 | 10924 ft | 284 kts | 174° |
| 2026-04-30 20:24 | 45.42690 | 9.13613 | 10651 ft | 280 kts | 174° |
| 2026-04-30 20:24 | 45.40760 | 9.13832 | 10421 ft | 277 kts | 174° |
| 2026-04-30 20:24 | 45.38848 | 9.14048 | 10115 ft | 275 kts | 173° |
| 2026-04-30 20:24 | 45.36947 | 9.14261 | 9749 ft | 273 kts | 174° |
| 2026-04-30 20:25 | 45.33178 | 9.14673 | 9081 ft | 269 kts | 174° |
| 2026-04-30 20:25 | 45.31348 | 9.14876 | 8748 ft | 267 kts | 174° |
| 2026-04-30 20:26 | 45.27734 | 9.15282 | 8093 ft | 250 kts | 174° |
| 2026-04-30 20:26 | 45.24364 | 9.15659 | 7461 ft | 238 kts | 174° |
| 2026-04-30 20:26 | 45.22712 | 9.15846 | 7312 ft | 238 kts | 174° |
| 2026-04-30 20:27 | 45.19402 | 9.16238 | 6803 ft | 239 kts | 172° |
| 2026-04-30 20:27 | 45.16107 | 9.16812 | 6121 ft | 239 kts | 171° |
| 2026-04-30 20:28 | 45.13505 | 9.19290 | 5377 ft | 233 kts | 110° |
| 2026-04-30 20:28 | 45.13313 | 9.23786 | 4617 ft | 231 kts | 84° |
| 2026-04-30 20:29 | 45.14303 | 9.27954 | 4079 ft | 223 kts | 53° |
| 2026-04-30 20:30 | 45.18374 | 9.30511 | 3311 ft | 223 kts | 359° |
| 2026-04-30 20:30 | 45.22895 | 9.30026 | 3006 ft | 213 kts | 358° |
| 2026-04-30 20:31 | 45.26958 | 9.29590 | 3010 ft | 184 kts | 359° |
| 2026-04-30 20:32 | 45.30698 | 9.29191 | 2829 ft | 179 kts | 359° |
| 2026-04-30 20:32 | 45.33166 | 9.28926 | 2383 ft | 175 kts | 360° |
| 2026-04-30 20:33 | 45.34351 | 9.28797 | 2152 ft | 166 kts | 0° |
| 2026-04-30 20:33 | 45.36527 | 9.28563 | 1735 ft | 150 kts | 1° |
| 2026-04-30 20:33 | 45.37555 | 9.28453 | 1535 ft | 147 kts | 1° |
| 2026-04-30 20:34 | 45.39583 | 9.28236 | 1149 ft | 145 kts | 0° |
| 2026-04-30 20:34 | 45.41606 | 9.28019 | 741 ft | 146 kts | 356° |
| 2026-04-30 20:35 | 45.42615 | 9.27914 | 575 ft | 147 kts | 356° |
| 2026-04-30 20:35 | 45.43643 | 9.27802 | 356 ft | 149 kts | 355° |
| 2026-04-30 20:35 | 45.45092 | 9.27647 | 358 ft | 53 kts | 355° |
| 2026-04-30 20:36 | 45.45297 | 9.27654 | 362 ft | 24 kts | 21° |
| 2026-04-30 20:36 | 45.45422 | 9.27742 | 366 ft | 13 kts | 30° |
| 2026-04-30 20:36 | 45.45446 | 9.27770 | 362 ft | 0 kts | 45° |
| 2026-04-30 20:38 | 45.45457 | 9.27787 | 362 ft | 9 kts | 48° |
| 2026-04-30 20:38 | 45.45557 | 9.27816 | 363 ft | 22 kts | 1° |
| 2026-04-30 20:39 | 45.45612 | 9.27818 | 365 ft | 0 kts | 1° |
| 2026-04-30 20:41 | 45.45633 | 9.27818 | 363 ft | 12 kts | 1° |
| 2026-04-30 20:41 | 45.45735 | 9.27820 | 363 ft | 14 kts | 0° |
| 2026-04-30 20:42 | 45.45829 | 9.27821 | 366 ft | 13 kts | 1° |
| 2026-04-30 20:42 | 45.45906 | 9.27847 | 365 ft | 9 kts | 27° |
| 2026-04-30 20:42 | 45.45971 | 9.27850 | 367 ft | 0 kts | 1° |
| 2026-04-30 20:43 | 45.45972 | 9.27850 | 367 ft | 0 kts | 2° |